sensor_id;sensor_type;location;lat;lon;timestamp;P1;durP1;ratioP1;P2;durP2;ratioP2
6185;SDS011;3126;52.738;8.316;2023-01-29T00:04:04;22.20;;;12.18;;
6185;SDS011;3126;52.738;8.316;2023-01-29T00:09:05;20.02;;;11.20;;
6185;SDS011;3126;52.738;8.316;2023-01-29T00:14:06;19.95;;;11.05;;
6185;SDS011;3126;52.738;8.316;2023-01-29T00:19:07;25.17;;;12.52;;
6185;SDS011;3126;52.738;8.316;2023-01-29T00:24:08;21.30;;;11.68;;
6185;SDS011;3126;52.738;8.316;2023-01-29T00:29:09;22.02;;;11.68;;
6185;SDS011;3126;52.738;8.316;2023-01-29T00:34:10;22.35;;;11.98;;
6185;SDS011;3126;52.738;8.316;2023-01-29T00:39:11;19.73;;;10.77;;
6185;SDS011;3126;52.738;8.316;2023-01-29T00:44:12;20.52;;;11.48;;
6185;SDS011;3126;52.738;8.316;2023-01-29T00:49:32;21.83;;;12.25;;
6185;SDS011;3126;52.738;8.316;2023-01-29T00:54:33;22.08;;;11.63;;
6185;SDS011;3126;52.738;8.316;2023-01-29T00:59:34;21.10;;;11.93;;
6185;SDS011;3126;52.738;8.316;2023-01-29T01:04:35;22.17;;;12.27;;
6185;SDS011;3126;52.738;8.316;2023-01-29T01:09:36;23.42;;;11.63;;
6185;SDS011;3126;52.738;8.316;2023-01-29T01:14:56;26.50;;;12.00;;
6185;SDS011;3126;52.738;8.316;2023-01-29T01:19:57;21.45;;;12.40;;
6185;SDS011;3126;52.738;8.316;2023-01-29T01:24:58;24.98;;;12.68;;
6185;SDS011;3126;52.738;8.316;2023-01-29T01:29:59;22.20;;;12.68;;
6185;SDS011;3126;52.738;8.316;2023-01-29T01:35:00;25.55;;;13.27;;
6185;SDS011;3126;52.738;8.316;2023-01-29T01:40:01;20.80;;;11.68;;
6185;SDS011;3126;52.738;8.316;2023-01-29T01:45:03;26.00;;;13.13;;
6185;SDS011;3126;52.738;8.316;2023-01-29T01:50:09;21.50;;;11.77;;
6185;SDS011;3126;52.738;8.316;2023-01-29T01:55:12;21.48;;;11.77;;
6185;SDS011;3126;52.738;8.316;2023-01-29T02:00:15;25.30;;;12.10;;
6185;SDS011;3126;52.738;8.316;2023-01-29T02:05:16;22.90;;;11.82;;
6185;SDS011;3126;52.738;8.316;2023-01-29T02:10:46;23.30;;;12.35;;
6185;SDS011;3126;52.738;8.316;2023-01-29T02:15:48;21.90;;;11.85;;
6185;SDS011;3126;52.738;8.316;2023-01-29T02:21:01;22.52;;;11.43;;
6185;SDS011;3126;52.738;8.316;2023-01-29T02:31:38;21.67;;;12.68;;
6185;SDS011;3126;52.738;8.316;2023-01-29T02:36:49;20.73;;;11.35;;
6185;SDS011;3126;52.738;8.316;2023-01-29T02:41:57;24.20;;;12.57;;
6185;SDS011;3126;52.738;8.316;2023-01-29T02:47:21;24.45;;;12.55;;
6185;SDS011;3126;52.738;8.316;2023-01-29T02:52:25;24.83;;;13.50;;
6185;SDS011;3126;52.738;8.316;2023-01-29T02:57:32;23.85;;;12.98;;
6185;SDS011;3126;52.738;8.316;2023-01-29T03:07:36;23.50;;;12.20;;
6185;SDS011;3126;52.738;8.316;2023-01-29T03:12:46;23.25;;;13.57;;
6185;SDS011;3126;52.738;8.316;2023-01-29T03:18:02;23.70;;;14.35;;
6185;SDS011;3126;52.738;8.316;2023-01-29T03:23:09;23.40;;;12.68;;
6185;SDS011;3126;52.738;8.316;2023-01-29T03:28:12;22.95;;;11.68;;
6185;SDS011;3126;52.738;8.316;2023-01-29T03:33:35;26.27;;;13.55;;
6185;SDS011;3126;52.738;8.316;2023-01-29T03:38:39;25.40;;;13.68;;
6185;SDS011;3126;52.738;8.316;2023-01-29T03:48:58;24.10;;;12.65;;
6185;SDS011;3126;52.738;8.316;2023-01-29T03:54:13;23.40;;;11.82;;
6185;SDS011;3126;52.738;8.316;2023-01-29T03:59:19;26.73;;;13.60;;
6185;SDS011;3126;52.738;8.316;2023-01-29T04:04:23;22.95;;;12.45;;
6185;SDS011;3126;52.738;8.316;2023-01-29T04:09:30;25.30;;;12.63;;
6185;SDS011;3126;52.738;8.316;2023-01-29T04:14:31;25.95;;;13.00;;
6185;SDS011;3126;52.738;8.316;2023-01-29T04:19:33;29.58;;;14.75;;
6185;SDS011;3126;52.738;8.316;2023-01-29T04:24:34;27.63;;;12.30;;
6185;SDS011;3126;52.738;8.316;2023-01-29T04:29:42;28.92;;;13.20;;
6185;SDS011;3126;52.738;8.316;2023-01-29T04:39:48;25.92;;;12.32;;
6185;SDS011;3126;52.738;8.316;2023-01-29T04:55:00;29.85;;;15.05;;
6185;SDS011;3126;52.738;8.316;2023-01-29T05:05:06;28.77;;;15.00;;
6185;SDS011;3126;52.738;8.316;2023-01-29T05:10:08;25.77;;;12.90;;
6185;SDS011;3126;52.738;8.316;2023-01-29T05:15:13;28.02;;;15.20;;
6185;SDS011;3126;52.738;8.316;2023-01-29T05:20:15;29.20;;;13.80;;
6185;SDS011;3126;52.738;8.316;2023-01-29T05:25:24;29.58;;;14.15;;
6185;SDS011;3126;52.738;8.316;2023-01-29T05:30:26;25.65;;;13.23;;
6185;SDS011;3126;52.738;8.316;2023-01-29T05:35:27;30.10;;;15.30;;
6185;SDS011;3126;52.738;8.316;2023-01-29T05:40:28;31.05;;;15.63;;
6185;SDS011;3126;52.738;8.316;2023-01-29T05:45:29;28.85;;;15.23;;
6185;SDS011;3126;52.738;8.316;2023-01-29T05:50:30;25.77;;;14.73;;
6185;SDS011;3126;52.738;8.316;2023-01-29T05:55:31;31.38;;;16.30;;
6185;SDS011;3126;52.738;8.316;2023-01-29T06:00:32;27.90;;;14.57;;
6185;SDS011;3126;52.738;8.316;2023-01-29T06:05:36;28.45;;;15.15;;
6185;SDS011;3126;52.738;8.316;2023-01-29T06:10:37;28.17;;;14.35;;
6185;SDS011;3126;52.738;8.316;2023-01-29T06:15:39;28.73;;;14.80;;
6185;SDS011;3126;52.738;8.316;2023-01-29T06:20:40;33.67;;;16.38;;
6185;SDS011;3126;52.738;8.316;2023-01-29T06:25:41;29.27;;;13.68;;
6185;SDS011;3126;52.738;8.316;2023-01-29T06:30:42;33.15;;;16.33;;
6185;SDS011;3126;52.738;8.316;2023-01-29T06:35:43;30.80;;;14.70;;
6185;SDS011;3126;52.738;8.316;2023-01-29T06:40:44;31.48;;;15.65;;
6185;SDS011;3126;52.738;8.316;2023-01-29T06:45:49;35.80;;;15.50;;
6185;SDS011;3126;52.738;8.316;2023-01-29T06:50:50;28.92;;;15.13;;
6185;SDS011;3126;52.738;8.316;2023-01-29T06:55:54;28.52;;;14.35;;
6185;SDS011;3126;52.738;8.316;2023-01-29T07:01:01;33.20;;;15.55;;
6185;SDS011;3126;52.738;8.316;2023-01-29T07:06:02;27.25;;;14.10;;
6185;SDS011;3126;52.738;8.316;2023-01-29T07:11:04;21.08;;;12.07;;
6185;SDS011;3126;52.738;8.316;2023-01-29T07:16:06;30.58;;;13.35;;
6185;SDS011;3126;52.738;8.316;2023-01-29T07:21:07;27.85;;;13.48;;
6185;SDS011;3126;52.738;8.316;2023-01-29T07:26:08;25.65;;;14.15;;
6185;SDS011;3126;52.738;8.316;2023-01-29T07:31:10;26.13;;;13.57;;
6185;SDS011;3126;52.738;8.316;2023-01-29T07:36:11;31.52;;;14.32;;
6185;SDS011;3126;52.738;8.316;2023-01-29T07:41:13;28.48;;;13.65;;
6185;SDS011;3126;52.738;8.316;2023-01-29T07:46:14;27.77;;;14.23;;
6185;SDS011;3126;52.738;8.316;2023-01-29T07:51:14;29.27;;;13.07;;
6185;SDS011;3126;52.738;8.316;2023-01-29T07:56:17;28.52;;;13.23;;
6185;SDS011;3126;52.738;8.316;2023-01-29T08:01:18;29.67;;;14.50;;
6185;SDS011;3126;52.738;8.316;2023-01-29T08:06:19;27.77;;;14.10;;
6185;SDS011;3126;52.738;8.316;2023-01-29T08:11:20;29.73;;;14.30;;
6185;SDS011;3126;52.738;8.316;2023-01-29T08:16:21;26.55;;;12.40;;
6185;SDS011;3126;52.738;8.316;2023-01-29T08:21:22;26.50;;;13.35;;
6185;SDS011;3126;52.738;8.316;2023-01-29T08:26:23;26.98;;;14.15;;
6185;SDS011;3126;52.738;8.316;2023-01-29T08:31:26;27.40;;;13.95;;
6185;SDS011;3126;52.738;8.316;2023-01-29T08:36:27;30.23;;;14.85;;
6185;SDS011;3126;52.738;8.316;2023-01-29T08:41:28;20.73;;;10.50;;
6185;SDS011;3126;52.738;8.316;2023-01-29T08:46:29;24.90;;;13.93;;
6185;SDS011;3126;52.738;8.316;2023-01-29T08:51:31;28.98;;;14.75;;
6185;SDS011;3126;52.738;8.316;2023-01-29T08:56:32;27.45;;;12.88;;
6185;SDS011;3126;52.738;8.316;2023-01-29T09:01:33;27.95;;;13.77;;
6185;SDS011;3126;52.738;8.316;2023-01-29T09:06:34;25.95;;;13.95;;
6185;SDS011;3126;52.738;8.316;2023-01-29T09:11:35;25.02;;;14.10;;
6185;SDS011;3126;52.738;8.316;2023-01-29T09:16:37;26.50;;;14.10;;
6185;SDS011;3126;52.738;8.316;2023-01-29T09:21:38;20.02;;;10.48;;
6185;SDS011;3126;52.738;8.316;2023-01-29T09:26:38;26.10;;;14.10;;
6185;SDS011;3126;52.738;8.316;2023-01-29T09:31:40;24.00;;;13.93;;
6185;SDS011;3126;52.738;8.316;2023-01-29T09:36:41;26.20;;;14.20;;
6185;SDS011;3126;52.738;8.316;2023-01-29T09:41:44;26.50;;;13.63;;
6185;SDS011;3126;52.738;8.316;2023-01-29T09:46:50;25.67;;;13.98;;
6185;SDS011;3126;52.738;8.316;2023-01-29T09:51:56;22.13;;;12.65;;
6185;SDS011;3126;52.738;8.316;2023-01-29T09:56:59;23.83;;;13.27;;
6185;SDS011;3126;52.738;8.316;2023-01-29T10:22:54;23.98;;;14.40;;
6185;SDS011;3126;52.738;8.316;2023-01-29T10:27:57;24.70;;;14.85;;
6185;SDS011;3126;52.738;8.316;2023-01-29T10:33:00;23.25;;;12.48;;
6185;SDS011;3126;52.738;8.316;2023-01-29T10:43:16;21.42;;;11.75;;
6185;SDS011;3126;52.738;8.316;2023-01-29T11:03:32;21.98;;;13.27;;
6185;SDS011;3126;52.738;8.316;2023-01-29T11:08:36;21.67;;;12.52;;
6185;SDS011;3126;52.738;8.316;2023-01-29T11:14:20;23.48;;;13.63;;
6185;SDS011;3126;52.738;8.316;2023-01-29T11:19:05;23.92;;;14.10;;
6185;SDS011;3126;52.738;8.316;2023-01-29T11:24:10;23.38;;;13.02;;
6185;SDS011;3126;52.738;8.316;2023-01-29T11:29:36;21.10;;;14.38;;
6185;SDS011;3126;52.738;8.316;2023-01-29T11:39:58;21.50;;;13.80;;
6185;SDS011;3126;52.738;8.316;2023-01-29T11:44:59;20.65;;;11.27;;
6185;SDS011;3126;52.738;8.316;2023-01-29T11:50:00;22.75;;;11.15;;
6185;SDS011;3126;52.738;8.316;2023-01-29T11:55:03;21.70;;;12.73;;
6185;SDS011;3126;52.738;8.316;2023-01-29T12:00:06;20.48;;;12.70;;
6185;SDS011;3126;52.738;8.316;2023-01-29T12:05:17;18.70;;;11.13;;
6185;SDS011;3126;52.738;8.316;2023-01-29T12:10:29;23.23;;;12.95;;
6185;SDS011;3126;52.738;8.316;2023-01-29T12:15:38;22.95;;;13.10;;
6185;SDS011;3126;52.738;8.316;2023-01-29T12:31:10;21.67;;;11.80;;
6185;SDS011;3126;52.738;8.316;2023-01-29T12:41:23;24.58;;;14.23;;
6185;SDS011;3126;52.738;8.316;2023-01-29T12:46:28;23.85;;;14.02;;
6185;SDS011;3126;52.738;8.316;2023-01-29T12:51:34;21.17;;;12.68;;
6185;SDS011;3126;52.738;8.316;2023-01-29T12:56:43;25.30;;;13.80;;
6185;SDS011;3126;52.738;8.316;2023-01-29T13:02:10;23.58;;;12.20;;
6185;SDS011;3126;52.738;8.316;2023-01-29T13:12:17;23.13;;;13.82;;
6185;SDS011;3126;52.738;8.316;2023-01-29T13:17:22;26.75;;;14.73;;
6185;SDS011;3126;52.738;8.316;2023-01-29T13:22:25;16.50;;;10.57;;
6185;SDS011;3126;52.738;8.316;2023-01-29T13:27:28;25.65;;;13.65;;
6185;SDS011;3126;52.738;8.316;2023-01-29T13:32:30;26.55;;;14.55;;
6185;SDS011;3126;52.738;8.316;2023-01-29T13:37:32;29.48;;;16.23;;
6185;SDS011;3126;52.738;8.316;2023-01-29T13:47:37;28.63;;;16.27;;
6185;SDS011;3126;52.738;8.316;2023-01-29T13:52:40;29.67;;;18.33;;
6185;SDS011;3126;52.738;8.316;2023-01-29T14:18:18;34.13;;;20.00;;
6185;SDS011;3126;52.738;8.316;2023-01-29T14:29:04;34.50;;;19.55;;
6185;SDS011;3126;52.738;8.316;2023-01-29T14:34:12;42.78;;;22.00;;
6185;SDS011;3126;52.738;8.316;2023-01-29T14:49:48;44.33;;;23.30;;
6185;SDS011;3126;52.738;8.316;2023-01-29T14:54:49;43.60;;;23.63;;
6185;SDS011;3126;52.738;8.316;2023-01-29T14:59:53;42.97;;;23.10;;
6185;SDS011;3126;52.738;8.316;2023-01-29T15:04:55;44.00;;;23.65;;
6185;SDS011;3126;52.738;8.316;2023-01-29T15:20:29;44.83;;;23.35;;
6185;SDS011;3126;52.738;8.316;2023-01-29T15:25:33;33.85;;;18.45;;
6185;SDS011;3126;52.738;8.316;2023-01-29T15:30:35;50.08;;;25.75;;
6185;SDS011;3126;52.738;8.316;2023-01-29T15:35:37;36.35;;;18.27;;
6185;SDS011;3126;52.738;8.316;2023-01-29T15:40:39;50.28;;;23.33;;
6185;SDS011;3126;52.738;8.316;2023-01-29T15:45:40;40.78;;;19.50;;
6185;SDS011;3126;52.738;8.316;2023-01-29T15:50:41;49.50;;;25.70;;
6185;SDS011;3126;52.738;8.316;2023-01-29T15:55:43;42.78;;;23.20;;
6185;SDS011;3126;52.738;8.316;2023-01-29T16:00:50;48.08;;;25.45;;
6185;SDS011;3126;52.738;8.316;2023-01-29T16:05:53;42.67;;;23.75;;
6185;SDS011;3126;52.738;8.316;2023-01-29T16:10:55;42.22;;;23.02;;
6185;SDS011;3126;52.738;8.316;2023-01-29T16:16:01;43.38;;;22.55;;
6185;SDS011;3126;52.738;8.316;2023-01-29T16:21:24;39.30;;;20.45;;
6185;SDS011;3126;52.738;8.316;2023-01-29T16:26:25;43.53;;;22.75;;
6185;SDS011;3126;52.738;8.316;2023-01-29T16:31:27;30.10;;;16.08;;
6185;SDS011;3126;52.738;8.316;2023-01-29T16:36:29;49.55;;;26.83;;
6185;SDS011;3126;52.738;8.316;2023-01-29T16:41:30;44.60;;;21.58;;
6185;SDS011;3126;52.738;8.316;2023-01-29T16:46:33;49.38;;;24.23;;
6185;SDS011;3126;52.738;8.316;2023-01-29T16:51:37;55.63;;;24.40;;
6185;SDS011;3126;52.738;8.316;2023-01-29T16:56:39;51.35;;;24.00;;
6185;SDS011;3126;52.738;8.316;2023-01-29T17:01:40;28.98;;;14.85;;
6185;SDS011;3126;52.738;8.316;2023-01-29T17:06:41;44.65;;;22.00;;
6185;SDS011;3126;52.738;8.316;2023-01-29T17:11:44;47.60;;;22.27;;
6185;SDS011;3126;52.738;8.316;2023-01-29T17:16:48;47.40;;;24.27;;
6185;SDS011;3126;52.738;8.316;2023-01-29T17:21:49;39.97;;;22.55;;
6185;SDS011;3126;52.738;8.316;2023-01-29T17:26:50;46.15;;;23.65;;
6185;SDS011;3126;52.738;8.316;2023-01-29T17:31:51;45.15;;;24.05;;
6185;SDS011;3126;52.738;8.316;2023-01-29T17:36:53;50.13;;;23.77;;
6185;SDS011;3126;52.738;8.316;2023-01-29T17:41:56;46.55;;;23.23;;
6185;SDS011;3126;52.738;8.316;2023-01-29T17:46:58;47.40;;;21.90;;
6185;SDS011;3126;52.738;8.316;2023-01-29T17:51:59;40.75;;;22.25;;
6185;SDS011;3126;52.738;8.316;2023-01-29T17:57:01;36.50;;;18.83;;
6185;SDS011;3126;52.738;8.316;2023-01-29T18:02:02;41.50;;;21.30;;
6185;SDS011;3126;52.738;8.316;2023-01-29T18:07:03;42.42;;;21.25;;
6185;SDS011;3126;52.738;8.316;2023-01-29T18:12:04;48.17;;;24.08;;
6185;SDS011;3126;52.738;8.316;2023-01-29T18:17:06;52.85;;;23.65;;
6185;SDS011;3126;52.738;8.316;2023-01-29T18:22:06;48.10;;;23.00;;
6185;SDS011;3126;52.738;8.316;2023-01-29T18:27:08;45.45;;;21.90;;
6185;SDS011;3126;52.738;8.316;2023-01-29T18:32:09;41.20;;;21.88;;
6185;SDS011;3126;52.738;8.316;2023-01-29T18:37:10;49.97;;;22.30;;
6185;SDS011;3126;52.738;8.316;2023-01-29T18:42:11;30.58;;;16.55;;
6185;SDS011;3126;52.738;8.316;2023-01-29T18:47:12;38.78;;;21.88;;
6185;SDS011;3126;52.738;8.316;2023-01-29T18:52:13;43.67;;;21.10;;
6185;SDS011;3126;52.738;8.316;2023-01-29T18:57:15;43.80;;;21.55;;
6185;SDS011;3126;52.738;8.316;2023-01-29T19:02:16;32.75;;;15.93;;
6185;SDS011;3126;52.738;8.316;2023-01-29T19:07:18;36.17;;;19.65;;
6185;SDS011;3126;52.738;8.316;2023-01-29T19:12:20;49.45;;;24.52;;
6185;SDS011;3126;52.738;8.316;2023-01-29T19:17:21;22.10;;;14.02;;
6185;SDS011;3126;52.738;8.316;2023-01-29T19:22:22;43.60;;;21.48;;
6185;SDS011;3126;52.738;8.316;2023-01-29T19:27:23;41.45;;;17.95;;
6185;SDS011;3126;52.738;8.316;2023-01-29T19:32:25;39.92;;;20.52;;
6185;SDS011;3126;52.738;8.316;2023-01-29T19:37:27;35.22;;;16.55;;
6185;SDS011;3126;52.738;8.316;2023-01-29T19:42:29;42.75;;;21.02;;
6185;SDS011;3126;52.738;8.316;2023-01-29T19:47:30;30.30;;;15.95;;
6185;SDS011;3126;52.738;8.316;2023-01-29T19:52:32;32.75;;;17.45;;
6185;SDS011;3126;52.738;8.316;2023-01-29T19:57:33;41.25;;;19.58;;
6185;SDS011;3126;52.738;8.316;2023-01-29T20:02:34;39.63;;;18.75;;
6185;SDS011;3126;52.738;8.316;2023-01-29T20:07:35;39.83;;;20.73;;
6185;SDS011;3126;52.738;8.316;2023-01-29T20:12:37;38.75;;;18.90;;
6185;SDS011;3126;52.738;8.316;2023-01-29T20:17:38;37.78;;;18.88;;
6185;SDS011;3126;52.738;8.316;2023-01-29T20:22:39;28.20;;;14.68;;
6185;SDS011;3126;52.738;8.316;2023-01-29T20:27:40;38.70;;;19.90;;
6185;SDS011;3126;52.738;8.316;2023-01-29T20:32:41;38.92;;;18.38;;
6185;SDS011;3126;52.738;8.316;2023-01-29T20:37:42;27.75;;;14.15;;
6185;SDS011;3126;52.738;8.316;2023-01-29T20:42:43;41.72;;;19.90;;
6185;SDS011;3126;52.738;8.316;2023-01-29T20:47:44;38.72;;;18.25;;
6185;SDS011;3126;52.738;8.316;2023-01-29T20:52:45;39.13;;;20.45;;
6185;SDS011;3126;52.738;8.316;2023-01-29T20:57:47;41.97;;;18.73;;
6185;SDS011;3126;52.738;8.316;2023-01-29T21:02:48;36.90;;;18.33;;
6185;SDS011;3126;52.738;8.316;2023-01-29T21:07:49;39.92;;;19.08;;
6185;SDS011;3126;52.738;8.316;2023-01-29T21:12:50;32.95;;;16.02;;
6185;SDS011;3126;52.738;8.316;2023-01-29T21:17:53;35.67;;;18.83;;
6185;SDS011;3126;52.738;8.316;2023-01-29T21:22:54;30.00;;;16.25;;
6185;SDS011;3126;52.738;8.316;2023-01-29T21:27:55;43.90;;;20.45;;
6185;SDS011;3126;52.738;8.316;2023-01-29T21:32:56;39.95;;;17.27;;
6185;SDS011;3126;52.738;8.316;2023-01-29T21:37:57;43.03;;;18.88;;
6185;SDS011;3126;52.738;8.316;2023-01-29T21:42:58;33.35;;;16.92;;
6185;SDS011;3126;52.738;8.316;2023-01-29T21:48:11;38.20;;;20.27;;
6185;SDS011;3126;52.738;8.316;2023-01-29T21:53:13;39.53;;;18.60;;
6185;SDS011;3126;52.738;8.316;2023-01-29T21:58:14;43.17;;;20.73;;
6185;SDS011;3126;52.738;8.316;2023-01-29T22:03:15;39.22;;;20.00;;
6185;SDS011;3126;52.738;8.316;2023-01-29T22:08:16;39.28;;;19.27;;
6185;SDS011;3126;52.738;8.316;2023-01-29T22:13:17;40.55;;;18.02;;
6185;SDS011;3126;52.738;8.316;2023-01-29T22:18:18;39.15;;;19.33;;
6185;SDS011;3126;52.738;8.316;2023-01-29T22:23:19;41.45;;;17.85;;
6185;SDS011;3126;52.738;8.316;2023-01-29T22:28:20;36.67;;;17.05;;
6185;SDS011;3126;52.738;8.316;2023-01-29T22:33:21;35.72;;;17.77;;
6185;SDS011;3126;52.738;8.316;2023-01-29T22:38:22;40.60;;;19.63;;
6185;SDS011;3126;52.738;8.316;2023-01-29T22:43:23;36.53;;;17.60;;
6185;SDS011;3126;52.738;8.316;2023-01-29T22:48:26;39.97;;;19.63;;
6185;SDS011;3126;52.738;8.316;2023-01-29T22:53:29;36.58;;;17.73;;
6185;SDS011;3126;52.738;8.316;2023-01-29T22:58:30;37.53;;;17.48;;
6185;SDS011;3126;52.738;8.316;2023-01-29T23:03:31;37.42;;;17.88;;
6185;SDS011;3126;52.738;8.316;2023-01-29T23:08:32;36.53;;;17.13;;
6185;SDS011;3126;52.738;8.316;2023-01-29T23:13:33;35.03;;;17.13;;
6185;SDS011;3126;52.738;8.316;2023-01-29T23:18:34;37.30;;;18.35;;
6185;SDS011;3126;52.738;8.316;2023-01-29T23:23:36;38.90;;;18.58;;
6185;SDS011;3126;52.738;8.316;2023-01-29T23:28:37;29.85;;;12.35;;
6185;SDS011;3126;52.738;8.316;2023-01-29T23:33:38;26.15;;;13.05;;
6185;SDS011;3126;52.738;8.316;2023-01-29T23:38:39;36.20;;;17.63;;
6185;SDS011;3126;52.738;8.316;2023-01-29T23:43:40;36.00;;;17.52;;
6185;SDS011;3126;52.738;8.316;2023-01-29T23:48:41;36.50;;;16.45;;
6185;SDS011;3126;52.738;8.316;2023-01-29T23:53:42;36.08;;;20.20;;
6185;SDS011;3126;52.738;8.316;2023-01-29T23:58:43;35.88;;;18.10;;
